Alta, Indiana
Current Conditions -  °F | °C
As of 10:10 AM on Monday 22 Dec 2014 (Local Time) from KPRG Reporting Station
Light Rain Light Rain  
Wind Chill: 30°   Ceiling: 4700
Heat Index: 35°   Visibility: 7mi
Dew Point: 33°   Wind: 6mph
Humidity: 92%   Direction: 120°ESE
Pressure: 29.9"   Gusts: NA
Location:  39.7643°N, 87.4119°W
Report Text: KPRG 221510Z AUTO 12005KT 7SM -RA SCT035 OVC047 02/01 A2990 RMK AO2 T00160005
Loading
Personal Weather Stations






























Interactive Weather Map New forecast layout! Learn more

10-Day Weather Forecast

Advertisements
Track Severe Weather on mobile